Time;durP1;ratioP1;P1;durP2;ratioP2;P2;SDS_P1;SDS_P2;PMS_P1;PMS_P2;Temp;Humidity;BMP_temperature;BMP_pressure;BME280_temperature;BME280_humidity;BME280_pressure;Samples;Min_cycle;Max_cycle;Signal;HPM_P1;HPM_P2
2021/04/09 00:01:42;;;;;;;;;;;0.60;68.20;;;;;;5026519;28;20025;-66
2021/04/09 00:04:08;;;;;;;2.03;0.70;;;0.70;67.20;;;;;;5025147;28;19913;-67
2021/04/09 00:06:33;;;;;;;;;;;0.80;66.40;;;;;;5026817;28;20080;-67
2021/04/09 00:08:59;;;;;;;1.67;0.50;;;0.90;65.20;;;;;;5026357;28;19996;-67
2021/04/09 00:11:25;;;;;;;;;;;1.10;63.60;;;;;;5026861;28;20021;-66
2021/04/09 00:13:51;;;;;;;2.85;0.70;;;1.20;63.20;;;;;;5025874;28;19995;-67
2021/04/09 00:16:16;;;;;;;;;;;1.10;63.60;;;;;;5026730;28;20029;-67
2021/04/09 00:18:42;;;;;;;1.27;0.38;;;1.20;63.50;;;;;;5024786;28;20202;-67
2021/04/09 00:21:07;;;;;;;;;;;1.20;62.80;;;;;;5026605;28;20060;-67
2021/04/09 00:23:33;;;;;;;3.25;0.50;;;1.20;63.00;;;;;;5026263;28;19913;-67
2021/04/09 00:25:59;;;;;;;;;;;1.20;63.00;;;;;;5026501;28;20755;-67
2021/04/09 00:28:25;;;;;;;1.73;0.57;;;1.30;62.40;;;;;;5025971;28;19909;-68
2021/04/09 00:30:51;;;;;;;;;;;1.30;62.10;;;;;;5026636;28;20053;-67
2021/04/09 00:33:16;;;;;;;2.17;0.57;;;1.30;62.20;;;;;;5026190;28;19916;-67
2021/04/09 00:35:43;;;;;;;3.38;0.43;;;1.30;61.70;;;;;;5025852;28;20029;-68
2021/04/09 00:38:10;;;;;;;4.22;0.80;;;1.40;61.50;;;;;;5026023;28;20136;-68
2021/04/09 00:40:36;;;;;;;1.17;0.40;;;1.40;61.50;;;;;;5025838;28;20548;-67
2021/04/09 00:43:03;;;;;;;3.13;0.63;;;1.40;61.60;;;;;;5025351;28;20029;-66
2021/04/09 00:45:28;;;;;;;2.42;0.52;;;1.50;62.00;;;;;;5026036;28;20045;-68
2021/04/09 00:47:54;;;;;;;;;;;1.60;62.10;;;;;;5026470;28;20053;-67
2021/04/09 00:50:20;;;;;;;2.72;0.88;;;1.60;62.00;;;;;;5026035;28;19906;-67
2021/04/09 00:52:47;;;;;;;5.65;1.10;;;1.50;62.40;;;;;;5026720;28;20112;-68
2021/04/09 00:55:13;;;;;;;3.97;0.90;;;1.50;62.60;;;;;;5030114;28;20036;-68
2021/04/09 00:57:42;;;;;;;2.25;0.55;;;1.40;62.80;;;;;;5029717;28;20071;-68
2021/04/09 01:00:10;;;;;;;3.72;0.88;;;1.40;62.80;;;;;;5029961;28;20422;-67
2021/04/09 01:02:37;;;;;;;4.38;0.75;;;1.40;62.60;;;;;;5029374;28;20108;-68
2021/04/09 01:05:03;;;;;;;;;;;1.30;63.00;;;;;;5030450;28;20029;-67
2021/04/09 01:07:29;;;;;;;3.17;0.90;;;1.20;63.40;;;;;;5028191;28;19909;-67
2021/04/09 01:09:55;;;;;;;;;;;1.00;63.90;;;;;;5029861;28;20033;-67
2021/04/09 01:12:20;;;;;;;5.53;0.73;;;0.90;64.30;;;;;;5029416;28;19999;-67
2021/04/09 01:14:46;;;;;;;;;;;0.90;64.70;;;;;;5029429;28;20056;-67
2021/04/09 01:17:18;;;;;;;2.13;0.50;;;0.80;64.90;;;;;;5029684;28;19924;-66
2021/04/09 01:20:11;;;;;;;3.33;0.88;;;0.90;64.50;;;;;;5029368;28;20053;-67
2021/04/09 01:22:50;;;;;;;4.45;0.63;;;0.80;64.80;;;;;;5029515;28;20104;-68
2021/04/09 01:25:34;;;;;;;1.23;0.43;;;0.70;64.60;;;;;;5027706;28;20095;-66
2021/04/09 01:28:12;;;;;;;1.90;0.50;;;0.50;64.70;;;;;;5027851;28;20032;-68
2021/04/09 01:31:04;;;;;;;1.73;0.50;;;0.20;65.80;;;;;;5028108;28;20034;-67
2021/04/09 01:33:36;;;;;;;3.97;0.77;;;0.00;66.40;;;;;;5027847;28;20034;-67
2021/04/09 01:36:26;;;;;;;2.45;0.50;;;-0.20;67.40;;;;;;5029347;28;20379;-68
2021/04/09 01:39:04;;;;;;;2.95;0.90;;;-0.40;68.20;;;;;;5029205;28;20029;-67
2021/04/09 01:41:32;;;;;;;1.80;0.52;;;-0.50;68.80;;;;;;5029157;28;20034;-67
2021/04/09 01:44:02;;;;;;;2.22;0.80;;;-0.60;69.50;;;;;;5027349;28;20399;-68
2021/04/09 01:46:29;;;;;;;5.15;1.30;;;-0.60;70.00;;;;;;5028730;28;20608;-67
2021/04/09 01:48:56;;;;;;;3.42;1.50;;;-0.60;70.40;;;;;;5027895;28;20391;-67
2021/04/09 01:51:22;;;;;;;4.90;1.67;;;-0.70;70.90;;;;;;5029024;28;20022;-67
2021/04/09 01:53:48;;;;;;;6.15;1.33;;;-0.70;71.00;;;;;;5029076;28;20032;-67
2021/04/09 01:56:16;;;;;;;5.90;1.77;;;-0.80;71.10;;;;;;5029004;28;20044;-67
2021/04/09 01:58:43;;;;;;;12.30;3.22;;;-0.80;71.40;;;;;;5028004;28;20035;-67
2021/04/09 02:01:12;;;;;;;3.63;1.27;;;-0.90;72.20;;;;;;5029034;28;20037;-67
2021/04/09 02:03:44;;;;;;;3.75;1.48;;;-0.90;72.60;;;;;;5027098;28;20071;-67
2021/04/09 02:06:13;;;;;;;14.35;5.70;;;-0.80;72.60;;;;;;5028185;28;20029;-67
2021/04/09 02:08:40;;;;;;;32.13;15.18;;;-0.70;72.00;;;;;;5028699;28;20025;-67
2021/04/09 02:11:07;;;;;;;29.48;12.43;;;-0.70;71.70;;;;;;5028102;28;20030;-67
2021/04/09 02:13:34;;;;;;;22.58;11.73;;;-0.70;71.70;;;;;;5027964;28;20033;-67
2021/04/09 02:16:01;;;;;;;22.85;10.85;;;-0.80;71.50;;;;;;5026613;28;20037;-67
2021/04/09 02:18:28;;;;;;;15.82;7.38;;;-0.80;71.60;;;;;;5027917;28;20187;-67
2021/04/09 02:20:57;;;;;;;10.30;4.95;;;-0.80;71.80;;;;;;5028545;28;20033;-68
2021/04/09 02:23:22;;;;;;;7.93;3.25;;;-0.90;72.10;;;;;;5027880;28;20398;-67
2021/04/09 02:25:48;;;;;;;;;;;-1.00;72.30;;;;;;5028633;28;20045;-68
2021/04/09 02:28:14;;;;;;;7.50;2.05;;;-1.10;72.50;;;;;;5027552;28;20605;-67
2021/04/09 02:30:40;;;;;;;3.83;1.00;;;-1.20;72.70;;;;;;5028244;28;20036;-67
2021/04/09 02:33:06;;;;;;;2.60;0.88;;;-1.20;73.00;;;;;;5028434;28;20037;-68
2021/04/09 02:35:32;;;;;;;;;;;-1.20;73.20;;;;;;5028537;28;20033;-67
2021/04/09 02:37:58;;;;;;;2.03;0.50;;;-1.20;73.10;;;;;;5027822;28;19908;-67
2021/04/09 02:40:32;;;;;;;2.85;0.77;;;-1.20;72.90;;;;;;5026915;28;20056;-67
2021/04/09 02:42:58;;;;;;;3.40;0.68;;;-1.20;72.80;;;;;;5027830;28;20018;-68
2021/04/09 02:45:24;;;;;;;;;;;-1.20;72.90;;;;;;5028397;28;20494;-66
2021/04/09 02:47:52;;;;;;;10.50;3.35;;;-1.20;72.90;;;;;;5027397;28;19994;-67
2021/04/09 02:50:25;;;;;;;9.27;3.70;;;-1.20;72.90;;;;;;5027627;28;20034;-67
2021/04/09 02:52:54;;;;;;;8.93;2.85;;;-1.20;72.90;;;;;;5026447;28;20548;-67
2021/04/09 02:55:25;;;;;;;11.77;4.05;;;-1.20;73.10;;;;;;5025219;28;20433;-67
2021/04/09 02:57:52;;;;;;;15.27;6.35;;;-1.30;73.50;;;;;;5025670;28;20106;-67
2021/04/09 03:00:18;;;;;;;12.98;5.57;;;-1.30;73.80;;;;;;5026421;28;20510;-67
2021/04/09 03:02:47;;;;;;;11.80;4.45;;;-1.30;73.80;;;;;;5025116;28;20064;-66
2021/04/09 03:05:14;;;;;;;24.52;10.52;;;-1.40;73.90;;;;;;5026226;28;20052;-67
2021/04/09 03:07:41;;;;;;;42.63;19.13;;;-1.30;74.20;;;;;;5023409;28;20044;-67
2021/04/09 03:10:09;;;;;;;8.88;5.00;;;-1.30;73.90;;;;;;5026152;28;20402;-67
2021/04/09 03:12:35;;;;;;;5.75;1.88;;;-1.20;73.40;;;;;;5025717;28;20016;-67
2021/04/09 03:15:01;;;;;;;;;;;-1.20;72.90;;;;;;5026606;28;20025;-67
2021/04/09 03:17:39;;;;;;;4.10;1.30;;;-1.10;72.70;;;;;;5024148;28;20401;-67
2021/04/09 03:20:06;;;;;;;2.38;0.65;;;-1.00;72.50;;;;;;5023139;28;20057;-67
2021/04/09 03:22:32;;;;;;;5.50;3.30;;;-1.00;72.80;;;;;;5026045;28;20039;-67
2021/04/09 03:24:57;;;;;;;;;;;-0.90;72.80;;;;;;5026096;28;20144;-67
2021/04/09 03:27:23;;;;;;;4.75;1.83;;;-1.00;72.70;;;;;;5024906;28;19909;-67
2021/04/09 03:29:49;;;;;;;;;;;-1.00;72.80;;;;;;5026444;28;20040;-67
2021/04/09 03:32:16;;;;;;;4.38;0.70;;;-1.00;72.80;;;;;;5025264;28;20427;-67
2021/04/09 03:34:42;;;;;;;7.03;1.13;;;-1.00;72.80;;;;;;5025708;28;20022;-67
2021/04/09 03:37:08;;;;;;;3.92;0.98;;;-0.90;72.80;;;;;;5025687;28;20085;-67
2021/04/09 03:39:34;;;;;;;;;;;-0.90;72.60;;;;;;5027107;28;20441;-67
2021/04/09 03:42:00;;;;;;;4.38;1.73;;;-0.90;72.50;;;;;;5026604;28;19916;-67
2021/04/09 03:44:25;;;;;;;;;;;-0.90;72.60;;;;;;5027429;28;20029;-66
2021/04/09 03:46:51;;;;;;;8.90;2.47;;;-1.00;72.70;;;;;;5026117;28;19909;-66
2021/04/09 03:49:16;;;;;;;;;;;-0.90;72.90;;;;;;5025821;28;20489;-66
2021/04/09 03:51:42;;;;;;;8.70;1.92;;;-1.00;73.00;;;;;;5025940;28;19927;-68
2021/04/09 03:54:07;;;;;;;;;;;-0.90;73.10;;;;;;5024792;28;20029;-67
2021/04/09 03:56:33;;;;;;;4.82;1.70;;;-0.90;72.80;;;;;;5025726;28;19916;-67
2021/04/09 03:58:59;;;;;;;;;;;-0.90;72.70;;;;;;5026645;28;20406;-67
2021/04/09 04:01:29;;;;;;;7.95;0.90;;;-0.90;72.50;;;;;;5024363;28;20270;-67
2021/04/09 04:03:54;;;;;;;5.88;1.65;;;-0.80;72.70;;;;;;5024937;28;20072;-66
2021/04/09 04:06:20;;;;;;;;;;;-0.90;72.90;;;;;;5025307;28;20666;-67
2021/04/09 04:08:46;;;;;;;3.72;0.95;;;-0.90;73.20;;;;;;5023078;28;20282;-68
2021/04/09 04:11:12;;;;;;;;;;;-1.00;73.50;;;;;;5025874;28;20068;-67
2021/04/09 04:13:37;;;;;;;3.92;0.95;;;-1.00;73.90;;;;;;5025879;28;19913;-65
2021/04/09 04:16:03;;;;;;;;;;;-1.00;73.90;;;;;;5025815;28;20072;-67
2021/04/09 04:18:29;;;;;;;3.65;1.13;;;-1.00;73.90;;;;;;5025912;28;19967;-67
2021/04/09 04:20:54;;;;;;;;;;;-0.90;73.50;;;;;;5025883;28;20014;-67
2021/04/09 04:23:20;;;;;;;3.38;1.02;;;-0.70;72.60;;;;;;5025925;28;20011;-67
2021/04/09 04:25:45;;;;;;;;;;;-0.60;72.00;;;;;;5025504;28;20048;-66
2021/04/09 04:28:12;;;;;;;5.25;1.52;;;-0.60;71.60;;;;;;5024744;28;19931;-67
2021/04/09 04:30:38;;;;;;;6.82;1.55;;;-0.50;71.20;;;;;;5026299;28;20030;-67
2021/04/09 04:33:03;;;;;;;;;;;-0.40;70.80;;;;;;5026348;28;20398;-67
2021/04/09 04:35:29;;;;;;;23.10;9.15;;;-0.40;70.60;;;;;;5026147;28;20358;-66
2021/04/09 04:37:56;;;;;;;57.35;19.35;;;-0.30;70.60;;;;;;5026034;28;20120;-67
2021/04/09 04:40:22;;;;;;;50.20;18.65;;;-0.30;70.80;;;;;;5025392;28;20037;-67
2021/04/09 04:42:47;;;;;;;;;;;-0.30;71.00;;;;;;5026389;28;20044;-66
2021/04/09 04:45:14;;;;;;;47.95;18.42;;;0.00;70.40;;;;;;5025585;28;19913;-67
2021/04/09 04:47:39;;;;;;;38.97;16.70;;;0.30;69.20;;;;;;5025895;28;20049;-67
2021/04/09 04:50:05;;;;;;;;;;;0.70;67.70;;;;;;5026275;28;20057;-67
2021/04/09 04:52:31;;;;;;;19.98;8.02;;;1.40;64.90;;;;;;5026073;28;19928;-66
2021/04/09 04:54:56;;;;;;;;;;;2.10;62.20;;;;;;5026093;28;20022;-67
2021/04/09 04:57:22;;;;;;;15.02;5.22;;;2.70;59.80;;;;;;5025501;28;19972;-66
2021/04/09 04:59:48;;;;;;;;;;;3.20;57.80;;;;;;5024757;28;20041;-67
2021/04/09 05:02:15;;;;;;;7.30;3.10;;;3.70;56.20;;;;;;5025707;28;19912;-67
2021/04/09 05:04:40;;;;;;;5.43;2.28;;;4.30;54.00;;;;;;5025807;28;20021;-67
2021/04/09 05:07:06;;;;;;;;;;;4.80;52.40;;;;;;5026433;28;20052;-67
2021/04/09 05:09:31;;;;;;;4.15;1.60;;;5.20;50.70;;;;;;5025387;28;19909;-67
2021/04/09 05:11:57;;;;;;;3.13;0.93;;;5.40;50.20;;;;;;5025612;28;20047;-68
2021/04/09 05:14:22;;;;;;;;;;;5.70;49.40;;;;;;5026277;28;20045;-67
2021/04/09 05:16:48;;;;;;;45.78;30.23;;;5.90;49.10;;;;;;5025803;28;19944;-68
2021/04/09 05:19:14;;;;;;;8.00;3.55;;;6.20;48.90;;;;;;5025097;28;20156;-67
2021/04/09 05:21:39;;;;;;;29.27;14.88;;;6.60;48.50;;;;;;5025646;28;20128;-66
2021/04/09 05:24:05;;;;;;;;;;;7.10;47.00;;;;;;5026041;28;20100;-68
2021/04/09 05:26:31;;;;;;;33.67;13.43;;;7.60;44.80;;;;;;5024579;28;20304;-67
2021/04/09 05:28:56;;;;;;;;;;;7.70;44.90;;;;;;5025997;28;20623;-67
2021/04/09 05:31:22;;;;;;;28.10;14.85;;;8.20;43.20;;;;;;5025491;28;19913;-67
2021/04/09 05:33:47;;;;;;;;;;;8.30;43.70;;;;;;5025893;28;20030;-66
2021/04/09 05:36:13;;;;;;;59.03;31.05;;;8.60;42.70;;;;;;5025005;28;19920;-67
2021/04/09 05:38:38;;;;;;;;;;;9.00;42.70;;;;;;5026096;28;20030;-67
2021/04/09 05:41:04;;;;;;;57.60;27.55;;;9.10;41.20;;;;;;5027678;28;19913;-67
2021/04/09 05:43:30;;;;;;;;;;;9.40;41.40;;;;;;5028936;28;20025;-68
2021/04/09 05:45:55;;;;;;;37.05;18.30;;;9.80;39.80;;;;;;5029037;28;20387;-68
2021/04/09 05:48:21;;;;;;;;;;;9.90;40.50;;;;;;5029384;28;20480;-68
2021/04/09 05:50:47;;;;;;;30.08;16.15;;;10.00;41.00;;;;;;5029203;28;19905;-67
2021/04/09 05:53:13;;;;;;;;;;;10.20;40.20;;;;;;5029020;28;20025;-67
2021/04/09 05:55:39;;;;;;;26.90;13.43;;;10.60;39.10;;;;;;5027111;28;19909;-67
2021/04/09 05:58:04;;;;;;;25.85;15.77;;;11.00;39.80;;;;;;5028533;28;20087;-68
2021/04/09 06:00:30;;;;;;;17.83;10.20;;;11.40;38.10;;;;;;5028639;28;20083;-68
2021/04/09 06:02:56;;;;;;;10.63;6.55;;;11.70;37.60;;;;;;5028720;28;20030;-68
2021/04/09 06:05:22;;;;;;;4.47;2.20;;;12.10;36.50;;;;;;5028265;28;20048;-68
2021/04/09 06:07:47;;;;;;;3.15;1.13;;;12.50;35.30;;;;;;5028987;28;20052;-68
2021/04/09 06:10:14;;;;;;;4.75;1.38;;;12.90;33.90;;;;;;5026981;28;20406;-68
2021/04/09 06:12:40;;;;;;;3.05;1.27;;;12.70;34.40;;;;;;5028821;28;20025;-68
2021/04/09 06:15:10;;;;;;;2.88;1.38;;;12.80;34.50;;;;;;5027759;28;20052;-68
2021/04/09 06:17:37;;;;;;;2.15;1.20;;;12.90;33.70;;;;;;5024439;28;20093;-68
2021/04/09 06:20:04;;;;;;;5.25;1.20;;;13.10;34.10;;;;;;5025791;28;20053;-68
2021/04/09 06:22:30;;;;;;;4.50;1.65;;;13.60;31.70;;;;;;5026730;28;20028;-68
2021/04/09 06:24:56;;;;;;;3.85;1.40;;;13.20;32.40;;;;;;5026713;28;20033;-67
2021/04/09 06:27:21;;;;;;;3.83;1.10;;;13.00;32.60;;;;;;5026994;28;20056;-68
2021/04/09 06:29:47;;;;;;;7.35;4.20;;;13.20;33.60;;;;;;5027112;28;20037;-68
2021/04/09 06:32:13;;;;;;;3.17;1.08;;;13.50;32.20;;;;;;5028402;28;20064;-68
2021/04/09 06:34:39;;;;;;;2.88;1.30;;;13.80;32.30;;;;;;5026864;28;20112;-67
2021/04/09 06:37:05;;;;;;;3.83;1.15;;;14.30;31.70;;;;;;5028059;28;20049;-68
2021/04/09 06:39:30;;;;;;;4.57;1.40;;;14.60;30.50;;;;;;5027641;28;20033;-67
2021/04/09 06:41:57;;;;;;;2.75;0.90;;;14.40;29.80;;;;;;5027732;28;20056;-67
2021/04/09 06:44:22;;;;;;;4.53;1.65;;;14.00;31.10;;;;;;5027755;28;20490;-67
2021/04/09 06:46:48;;;;;;;3.88;1.83;;;14.40;31.30;;;;;;5027757;28;20140;-66
2021/04/09 06:49:14;;;;;;;2.67;1.15;;;14.70;30.80;;;;;;5027462;28;20100;-65
2021/04/09 06:51:45;;;;;;;3.15;1.58;;;15.00;30.20;;;;;;5026989;28;20041;-68
2021/04/09 06:54:12;;;;;;;4.78;1.50;;;15.30;29.80;;;;;;5027525;28;20052;-67
2021/04/09 06:56:38;;;;;;;5.43;1.35;;;15.50;29.90;;;;;;5027653;28;20039;-68
2021/04/09 06:59:09;;;;;;;4.80;1.92;;;15.80;29.10;;;;;;5027379;28;20041;-67
2021/04/09 07:01:39;;;;;;;3.03;1.50;;;15.80;29.50;;;;;;5027187;28;20029;-67
2021/04/09 07:04:06;;;;;;;3.92;1.50;;;15.70;29.90;;;;;;5027584;28;20565;-68
2021/04/09 07:06:31;;;;;;;3.58;1.73;;;16.00;29.20;;;;;;5027573;28;20043;-67
2021/04/09 07:08:57;;;;;;;6.25;1.70;;;16.30;29.00;;;;;;5026881;28;20021;-67
2021/04/09 07:11:23;;;;;;;6.13;1.48;;;16.60;28.70;;;;;;5026372;28;20049;-67
2021/04/09 07:13:50;;;;;;;3.70;1.40;;;16.70;28.70;;;;;;5027433;28;20092;-67
2021/04/09 07:16:16;;;;;;;4.65;1.50;;;16.70;27.70;;;;;;5027490;28;20044;-67
2021/04/09 07:18:53;;;;;;;4.40;1.80;;;16.60;28.50;;;;;;5026812;28;20053;-69
2021/04/09 07:21:30;;;;;;;7.15;2.28;;;16.70;28.70;;;;;;5027541;28;20036;-68
2021/04/09 07:24:14;;;;;;;4.38;2.50;;;17.20;28.00;;;;;;5026504;28;20486;-68
2021/04/09 07:26:43;;;;;;;10.82;2.38;;;17.40;27.90;;;;;;5027287;28;20067;-67
2021/04/09 07:29:31;;;;;;;20.48;8.90;;;17.50;27.70;;;;;;5027119;28;20025;-67
2021/04/09 07:32:15;;;;;;;7.22;2.35;;;17.40;27.80;;;;;;5027138;28;20025;-68
2021/04/09 07:35:11;;;;;;;7.50;1.92;;;17.60;27.40;;;;;;5026992;28;20076;-68
2021/04/09 07:37:57;;;;;;;4.32;1.90;;;17.50;27.80;;;;;;5026600;28;20075;-68
2021/04/09 07:40:29;;;;;;;5.93;2.20;;;17.00;27.30;;;;;;5026085;28;20039;-67
2021/04/09 07:42:56;;;;;;;3.45;1.70;;;16.90;28.30;;;;;;5026280;28;20276;-68
2021/04/09 07:45:25;;;;;;;9.07;2.08;;;16.90;28.90;;;;;;5026644;28;20031;-67
2021/04/09 07:48:06;;;;;;;10.18;2.67;;;16.70;28.10;;;;;;5026574;28;20034;-67
2021/04/09 07:50:48;;;;;;;6.07;1.83;;;17.00;28.50;;;;;;5026165;28;20029;-67
2021/04/09 07:53:29;;;;;;;5.70;2.40;;;17.20;27.70;;;;;;5026661;28;20034;-68
2021/04/09 07:56:01;;;;;;;5.30;2.35;;;16.60;28.30;;;;;;5026530;28;20037;-68
2021/04/09 07:58:27;;;;;;;4.53;2.03;;;16.90;29.10;;;;;;5026270;28;20510;-68
2021/04/09 08:00:53;;;;;;;8.13;2.30;;;17.50;28.30;;;;;;5026651;28;20033;-68
2021/04/09 08:03:31;;;;;;;9.98;2.30;;;18.30;27.20;;;;;;5024226;28;20022;-69
2021/04/09 08:06:18;;;;;;;8.35;2.97;;;18.90;27.00;;;;;;5026173;28;20029;-68
2021/04/09 08:08:47;;;;;;;4.47;2.35;;;19.30;26.10;;;;;;5025970;28;20104;-68
2021/04/09 08:11:29;;;;;;;6.20;2.42;;;19.60;25.50;;;;;;5026076;28;20047;-67
2021/04/09 08:14:21;;;;;;;10.80;2.75;;;20.10;25.20;;;;;;5026464;28;20021;-68
2021/04/09 08:16:49;;;;;;;5.70;3.15;;;20.00;25.00;;;;;;5026219;28;20155;-69
2021/04/09 08:19:15;;;;;;;8.55;2.35;;;19.60;25.50;;;;;;5026011;28;20124;-68
2021/04/09 08:21:55;;;;;;;9.60;3.20;;;19.70;25.50;;;;;;5025772;28;20597;-68
2021/04/09 08:24:28;;;;;;;7.60;3.20;;;20.00;24.60;;;;;;5025201;28;20030;-68
2021/04/09 08:26:54;;;;;;;5.25;2.97;;;19.50;25.00;;;;;;5026038;28;20051;-68
2021/04/09 08:29:20;;;;;;;7.80;2.90;;;19.60;24.70;;;;;;5025430;28;20041;-68
2021/04/09 08:31:50;;;;;;;5.32;2.40;;;19.20;25.90;;;;;;5024802;28;20422;-68
2021/04/09 08:34:19;;;;;;;17.80;3.45;;;19.80;25.30;;;;;;5025978;28;20036;-67
2021/04/09 08:36:45;;;;;;;5.88;3.03;;;18.90;25.10;;;;;;5025534;28;20049;-67
2021/04/09 08:39:14;;;;;;;8.40;3.47;;;18.70;26.30;;;;;;5023144;28;20457;-68
2021/04/09 08:41:44;;;;;;;6.32;2.90;;;18.40;26.30;;;;;;5025606;28;20018;-68
2021/04/09 08:44:11;;;;;;;6.22;2.85;;;18.70;25.70;;;;;;5025635;28;20409;-68
2021/04/09 08:46:38;;;;;;;15.02;3.20;;;19.00;25.60;;;;;;5026084;28;20056;-68
2021/04/09 08:49:08;;;;;;;5.38;2.45;;;18.90;25.10;;;;;;5025991;28;20823;-68
2021/04/09 08:51:37;;;;;;;5.68;2.65;;;18.90;25.30;;;;;;5023563;28;20490;-68
2021/04/09 08:54:18;;;;;;;5.07;2.88;;;19.00;25.30;;;;;;5023603;28;20063;-67
2021/04/09 08:56:45;;;;;;;6.80;2.70;;;19.40;24.80;;;;;;5025292;28;20038;-69
2021/04/09 08:59:10;;;;;;;5.47;2.15;;;19.40;25.20;;;;;;5023713;28;20128;-68
2021/04/09 09:01:36;;;;;;;6.60;3.15;;;18.90;25.10;;;;;;5025082;28;20101;-67
2021/04/09 09:04:20;;;;;;;4.63;2.70;;;19.00;25.80;;;;;;5024684;28;20032;-68
2021/04/09 09:06:47;;;;;;;4.18;2.15;;;19.60;24.70;;;;;;5024916;28;20028;-68
2021/04/09 09:09:31;;;;;;;7.40;2.35;;;19.90;24.40;;;;;;5024461;28;20037;-68
2021/04/09 09:12:01;;;;;;;8.18;3.00;;;19.70;24.30;;;;;;5025282;28;20159;-68
2021/04/09 09:14:33;;;;;;;5.30;2.40;;;20.00;24.10;;;;;;5027872;28;20029;-68
2021/04/09 09:17:31;;;;;;;4.90;2.40;;;19.90;24.50;;;;;;5029371;28;20025;-68
2021/04/09 09:20:03;;;;;;;5.40;3.22;;;19.50;24.90;;;;;;5017150;28;20057;-70
2021/04/09 09:22:51;;;;;;;5.85;3.30;;;19.60;24.00;;;;;;5026534;28;20050;-68
2021/04/09 09:25:37;;;;;;;9.93;3.67;;;18.50;25.20;;;;;;5021411;28;20021;-66
2021/04/09 09:28:09;;;;;;;7.57;2.90;;;17.90;26.40;;;;;;5028472;28;20029;-66
2021/04/09 09:30:37;;;;;;;4.97;2.80;;;18.30;26.60;;;;;;5028074;28;20053;-65
2021/04/09 09:33:29;;;;;;;12.35;4.00;;;18.90;25.70;;;;;;5023708;28;20037;-66
2021/04/09 09:35:55;;;;;;;8.18;4.90;;;19.40;25.20;;;;;;5027512;28;20052;-66
2021/04/09 09:38:50;;;;;;;8.90;3.90;;;19.70;24.50;;;;;;5026655;28;20045;-66
2021/04/09 09:41:37;;;;;;;8.95;4.13;;;19.80;24.30;;;;;;5027565;28;20048;-66
2021/04/09 09:44:30;;;;;;;6.32;3.83;;;19.50;24.10;;;;;;5026976;28;20046;-66
2021/04/09 09:46:57;;;;;;;9.95;4.22;;;19.30;25.30;;;;;;5028490;28;20033;-66
2021/04/09 09:49:27;;;;;;;8.23;4.18;;;19.80;24.60;;;;;;5027694;28;20283;-66
2021/04/09 09:51:53;;;;;;;8.73;4.22;;;19.70;24.80;;;;;;5028088;28;20048;-66
2021/04/09 09:54:27;;;;;;;5.38;3.17;;;19.80;24.80;;;;;;5027729;28;20490;-66
2021/04/09 09:56:54;;;;;;;6.53;3.65;;;19.80;24.80;;;;;;5028057;28;20048;-67
2021/04/09 09:59:25;;;;;;;8.32;4.13;;;20.10;24.00;;;;;;5027490;28;20175;-66
2021/04/09 10:01:53;;;;;;;6.10;4.10;;;19.80;24.00;;;;;;5027457;28;20061;-66
2021/04/09 10:04:19;;;;;;;6.78;3.83;;;19.00;24.80;;;;;;5027646;28;20040;-66
2021/04/09 10:06:51;;;;;;;5.20;3.50;;;19.10;25.30;;;;;;5025861;28;20042;-66
2021/04/09 10:09:28;;;;;;;4.32;2.78;;;19.30;25.10;;;;;;5025726;28;21063;-67
2021/04/09 10:11:54;;;;;;;13.60;10.00;;;19.60;24.30;;;;;;5026472;28;20040;-67
2021/04/09 10:14:20;;;;;;;7.82;4.78;;;19.90;22.60;;;;;;5027554;28;20053;-67
2021/04/09 10:16:46;;;;;;;8.88;4.88;;;20.00;22.50;;;;;;5027227;28;20042;-67
2021/04/09 10:19:11;;;;;;;8.77;3.70;;;19.40;22.70;;;;;;5027607;28;20391;-67
2021/04/09 10:21:43;;;;;;;10.80;4.47;;;19.00;23.70;;;;;;5025761;28;20037;-66
2021/04/09 10:24:16;;;;;;;15.38;3.80;;;18.20;23.70;;;;;;5026028;28;20042;-66
2021/04/09 10:27:04;;;;;;;7.18;2.97;;;16.90;25.10;;;;;;5026509;28;20037;-66
2021/04/09 10:29:35;;;;;;;7.28;3.28;;;16.30;25.90;;;;;;5026525;28;20514;-66
2021/04/09 10:32:02;;;;;;;7.38;3.03;;;15.80;26.20;;;;;;5027606;28;20037;-66
2021/04/09 10:34:31;;;;;;;6.00;2.28;;;15.70;26.90;;;;;;5027175;28;20461;-66
2021/04/09 10:36:56;;;;;;;5.95;2.80;;;15.50;26.90;;;;;;5024956;28;20136;-67
2021/04/09 10:39:23;;;;;;;;;;;15.20;27.30;;;;;;5028086;28;20188;-67
2021/04/09 10:41:54;;;;;;;7.85;2.92;;;15.10;27.60;;;;;;5028152;28;20288;-67
2021/04/09 10:44:23;;;;;;;5.90;2.53;;;15.00;28.20;;;;;;5028133;28;20791;-67
2021/04/09 10:47:03;;;;;;;5.60;2.53;;;15.00;27.40;;;;;;5027991;28;20035;-68
2021/04/09 10:49:31;;;;;;;6.72;2.35;;;14.80;27.30;;;;;;5027694;28;20068;-66
2021/04/09 10:52:17;;;;;;;4.45;1.88;;;14.60;26.80;;;;;;5026240;28;20508;-67
2021/04/09 10:54:44;;;;;;;4.38;2.00;;;14.50;27.40;;;;;;5026520;28;20048;-67
2021/04/09 10:57:11;;;;;;;4.05;2.00;;;14.40;27.10;;;;;;5027952;28;20022;-67
2021/04/09 10:59:42;;;;;;;6.10;1.90;;;14.30;27.50;;;;;;5027050;28;20129;-67
2021/04/09 11:02:19;;;;;;;4.15;2.38;;;14.30;27.60;;;;;;5027788;28;20013;-68
2021/04/09 11:04:56;;;;;;;5.20;1.98;;;14.20;27.50;;;;;;5026477;28;20107;-67
2021/04/09 11:07:48;;;;;;;4.05;1.58;;;14.00;27.20;;;;;;5027295;28;20030;-67
2021/04/09 11:10:36;;;;;;;7.90;1.92;;;14.10;27.70;;;;;;5027653;28;20029;-67
2021/04/09 11:13:03;;;;;;;3.95;2.00;;;14.20;27.10;;;;;;5027388;28;20391;-67
2021/04/09 11:15:40;;;;;;;9.05;3.70;;;14.10;27.30;;;;;;5026926;28;20490;-67
2021/04/09 11:18:05;;;;;;;;;;;14.00;27.20;;;;;;5027881;28;20021;-67
2021/04/09 11:20:34;;;;;;;4.95;2.00;;;14.10;27.30;;;;;;5027399;28;20412;-67
2021/04/09 11:23:06;;;;;;;6.95;3.85;;;14.40;27.10;;;;;;5027093;28;20021;-67
2021/04/09 11:25:35;;;;;;;12.68;2.40;;;14.50;26.70;;;;;;5026770;28;20040;-67
2021/04/09 11:28:02;;;;;;;11.63;5.15;;;14.50;27.30;;;;;;5026956;28;20117;-67
2021/04/09 11:30:37;;;;;;;6.25;2.25;;;14.40;26.70;;;;;;5027178;28;20018;-68
2021/04/09 11:33:04;;;;;;;8.63;3.13;;;14.20;26.30;;;;;;5027371;28;20029;-68
2021/04/09 11:35:38;;;;;;;3.85;2.10;;;14.10;27.10;;;;;;5027130;28;20033;-67
2021/04/09 11:38:13;;;;;;;3.50;1.70;;;13.90;27.00;;;;;;5025590;28;20026;-68
2021/04/09 11:40:44;;;;;;;3.83;1.55;;;14.00;27.20;;;;;;5026391;28;20040;-68
2021/04/09 11:43:12;;;;;;;3.53;2.13;;;13.90;27.60;;;;;;5026897;28;20126;-68
2021/04/09 11:45:47;;;;;;;6.63;1.90;;;14.00;27.00;;;;;;5026446;28;20498;-68
2021/04/09 11:48:28;;;;;;;4.30;2.25;;;14.10;27.70;;;;;;5027119;28;20056;-68
2021/04/09 11:51:17;;;;;;;5.95;2.50;;;14.20;27.90;;;;;;5026511;28;20033;-68
2021/04/09 11:54:00;;;;;;;8.27;2.65;;;14.20;27.50;;;;;;5026796;28;20047;-68
2021/04/09 11:56:48;;;;;;;5.43;2.47;;;14.00;27.50;;;;;;5026982;28;20068;-67
2021/04/09 11:59:19;;;;;;;6.82;2.85;;;13.90;27.50;;;;;;5026864;28;20045;-68
2021/04/09 12:01:47;;;;;;;6.53;4.00;;;13.80;27.80;;;;;;5026265;28;20028;-69
2021/04/09 12:04:32;;;;;;;13.65;4.07;;;13.70;27.40;;;;;;5026374;28;20037;-68
2021/04/09 12:06:59;;;;;;;7.03;3.03;;;13.60;27.70;;;;;;5026285;28;20026;-68
2021/04/09 12:09:25;;;;;;;5.28;2.83;;;13.40;28.00;;;;;;5025377;28;20041;-68
2021/04/09 12:11:50;;;;;;;;;;;13.40;28.10;;;;;;5027038;28;20113;-68
2021/04/09 12:14:39;;;;;;;6.85;2.72;;;13.40;27.40;;;;;;5026571;28;19909;-68
2021/04/09 12:17:07;;;;;;;8.00;2.88;;;13.40;27.80;;;;;;5026668;28;20768;-68
2021/04/09 12:19:33;;;;;;;5.22;2.45;;;13.40;27.60;;;;;;5025855;28;20064;-68
2021/04/09 12:21:59;;;;;;;;;;;13.40;27.80;;;;;;5026589;28;20021;-69
2021/04/09 12:24:24;;;;;;;7.78;2.33;;;13.40;27.90;;;;;;5026482;28;19987;-68
2021/04/09 12:26:50;;;;;;;;;;;13.40;27.90;;;;;;5027172;28;20071;-68
2021/04/09 12:29:16;;;;;;;4.60;2.45;;;13.40;27.90;;;;;;5041721;28;19916;-68
2021/04/09 12:31:42;;;;;;;;;;;13.40;28.10;;;;;;5026726;28;20509;-68
2021/04/09 12:34:07;;;;;;;5.40;2.30;;;13.50;29.10;;;;;;5025966;28;19932;-68
2021/04/09 12:36:36;;;;;;;;;;;13.50;28.90;;;;;;5026367;28;20119;-68
2021/04/09 12:39:05;;;;;;;7.63;2.72;;;13.60;28.60;;;;;;5026296;28;19917;-69
2021/04/09 12:41:31;;;;;;;8.77;2.60;;;13.70;28.50;;;;;;5025703;28;20506;-68
2021/04/09 12:43:56;;;;;;;;;;;13.60;28.30;;;;;;5026827;28;20056;-69
2021/04/09 12:46:22;;;;;;;8.70;2.85;;;13.70;28.70;;;;;;5025885;28;19940;-68
2021/04/09 12:48:47;;;;;;;;;;;13.70;28.40;;;;;;5027562;28;20140;-68
2021/04/09 12:51:13;;;;;;;7.00;2.75;;;13.80;28.20;;;;;;5029548;28;19913;-68
2021/04/09 12:53:38;;;;;;;;;;;13.80;27.70;;;;;;5030645;28;20402;-68
2021/04/09 12:56:05;;;;;;;7.97;2.63;;;13.70;27.90;;;;;;5045393;28;19909;-68
2021/04/09 12:58:30;;;;;;;5.70;1.90;;;13.60;27.90;;;;;;5030357;28;20036;-67
2021/04/09 13:00:56;;;;;;;;;;;13.50;28.40;;;;;;5030538;28;20030;-68
2021/04/09 13:03:22;;;;;;;5.07;2.28;;;13.40;28.00;;;;;;5030112;28;19909;-68
2021/04/09 13:05:47;;;;;;;;;;;13.30;29.00;;;;;;5029615;28;20040;-68
2021/04/09 13:08:18;;;;;;;4.93;2.13;;;13.40;29.10;;;;;;5030201;28;20120;-67
2021/04/09 13:10:44;;;;;;;4.60;2.75;;;13.50;28.70;;;;;;5030029;28;20036;-69
2021/04/09 13:13:09;;;;;;;;;;;13.60;28.80;;;;;;5030370;28;20037;-68